sensor_id;sensor_type;location;lat;lon;timestamp;pressure;altitude;pressure_sealevel;temperature;humidity
49915;BME280;35806;47.958;13.158;2023-08-17T00:01:54;94855.69;;;19.59;59.43
49915;BME280;35806;47.958;13.158;2023-08-17T00:04:22;94854.50;;;19.36;60.71
49915;BME280;35806;47.958;13.158;2023-08-17T00:06:49;94854.00;;;19.76;61.00
49915;BME280;35806;47.958;13.158;2023-08-17T00:09:16;94857.99;;;19.52;62.37
49915;BME280;35806;47.958;13.158;2023-08-17T00:11:43;94856.39;;;19.79;61.54
49915;BME280;35806;47.958;13.158;2023-08-17T00:14:10;94859.72;;;19.56;61.82
49915;BME280;35806;47.958;13.158;2023-08-17T00:16:37;94862.14;;;19.67;61.17
49915;BME280;35806;47.958;13.158;2023-08-17T00:19:04;94859.42;;;19.59;61.46
49915;BME280;35806;47.958;13.158;2023-08-17T00:21:31;94857.68;;;19.21;61.08
49915;BME280;35806;47.958;13.158;2023-08-17T00:23:58;94851.68;;;19.51;61.38
49915;BME280;35806;47.958;13.158;2023-08-17T00:26:25;94846.51;;;19.54;62.18
49915;BME280;35806;47.958;13.158;2023-08-17T00:28:52;94837.91;;;19.86;60.51
49915;BME280;35806;47.958;13.158;2023-08-17T00:31:20;94835.85;;;19.69;62.38
49915;BME280;35806;47.958;13.158;2023-08-17T00:33:47;94839.84;;;19.96;61.68
49915;BME280;35806;47.958;13.158;2023-08-17T00:36:14;94839.41;;;19.70;62.05
49915;BME280;35806;47.958;13.158;2023-08-17T00:38:42;94841.48;;;19.94;61.44
49915;BME280;35806;47.958;13.158;2023-08-17T00:41:09;94841.77;;;19.89;61.77
49915;BME280;35806;47.958;13.158;2023-08-17T00:43:36;94847.47;;;19.78;61.74
49915;BME280;35806;47.958;13.158;2023-08-17T00:46:03;94855.05;;;20.04;61.82
49915;BME280;35806;47.958;13.158;2023-08-17T00:48:31;94853.71;;;19.16;62.35
49915;BME280;35806;47.958;13.158;2023-08-17T00:51:00;94857.69;;;19.56;62.46
49915;BME280;35806;47.958;13.158;2023-08-17T00:53:29;94853.19;;;19.47;61.82
49915;BME280;35806;47.958;13.158;2023-08-17T00:55:58;94850.27;;;19.42;60.86
49915;BME280;35806;47.958;13.158;2023-08-17T00:58:27;94846.54;;;19.44;61.54
49915;BME280;35806;47.958;13.158;2023-08-17T01:15:34;94847.12;;;18.55;59.17
49915;BME280;35806;47.958;13.158;2023-08-17T01:18:08;94848.64;;;19.35;58.15
49915;BME280;35806;47.958;13.158;2023-08-17T01:20:38;94845.68;;;19.57;60.54
49915;BME280;35806;47.958;13.158;2023-08-17T01:23:06;94844.39;;;19.78;61.30
49915;BME280;35806;47.958;13.158;2023-08-17T01:25:33;94838.49;;;19.01;62.21
49915;BME280;35806;47.958;13.158;2023-08-17T01:28:00;94838.95;;;19.12;60.23
49915;BME280;35806;47.958;13.158;2023-08-17T01:30:27;94841.50;;;18.49;61.76
49915;BME280;35806;47.958;13.158;2023-08-17T01:32:59;94840.78;;;17.89;63.65
49915;BME280;35806;47.958;13.158;2023-08-17T01:35:32;94840.41;;;18.05;63.25
49915;BME280;35806;47.958;13.158;2023-08-17T01:38:04;94840.50;;;18.63;61.67
49915;BME280;35806;47.958;13.158;2023-08-17T01:40:34;94845.21;;;18.54;62.46
49915;BME280;35806;47.958;13.158;2023-08-17T01:43:02;94850.71;;;18.71;62.75
49915;BME280;35806;47.958;13.158;2023-08-17T01:45:30;94845.59;;;18.57;61.99
49915;BME280;35806;47.958;13.158;2023-08-17T01:47:57;94840.52;;;18.51;62.97
49915;BME280;35806;47.958;13.158;2023-08-17T01:50:24;94838.61;;;18.88;62.08
49915;BME280;35806;47.958;13.158;2023-08-17T01:52:52;94835.63;;;18.72;62.26
49915;BME280;35806;47.958;13.158;2023-08-17T01:55:21;94835.58;;;19.10;62.63
49915;BME280;35806;47.958;13.158;2023-08-17T01:57:49;94838.14;;;19.05;61.41
49915;BME280;35806;47.958;13.158;2023-08-17T02:00:16;94835.32;;;18.94;62.41
49915;BME280;35806;47.958;13.158;2023-08-17T02:02:43;94834.75;;;18.86;62.94
49915;BME280;35806;47.958;13.158;2023-08-17T02:05:11;94837.40;;;18.84;61.76
49915;BME280;35806;47.958;13.158;2023-08-17T02:07:39;94838.27;;;18.19;60.42
49915;BME280;35806;47.958;13.158;2023-08-17T02:10:07;94832.20;;;18.13;62.25
49915;BME280;35806;47.958;13.158;2023-08-17T02:12:40;94825.21;;;18.09;62.77
49915;BME280;35806;47.958;13.158;2023-08-17T02:15:08;94823.95;;;18.05;62.01
49915;BME280;35806;47.958;13.158;2023-08-17T02:17:35;94821.40;;;18.82;62.47
49915;BME280;35806;47.958;13.158;2023-08-17T02:20:03;94820.84;;;18.62;61.62
49915;BME280;35806;47.958;13.158;2023-08-17T02:22:30;94819.55;;;18.70;63.32
49915;BME280;35806;47.958;13.158;2023-08-17T02:24:58;94818.76;;;18.74;61.76
49915;BME280;35806;47.958;13.158;2023-08-17T02:27:24;94821.23;;;18.93;61.63
49915;BME280;35806;47.958;13.158;2023-08-17T02:29:52;94821.39;;;18.75;62.06
49915;BME280;35806;47.958;13.158;2023-08-17T02:32:19;94821.61;;;19.36;61.29
49915;BME280;35806;47.958;13.158;2023-08-17T02:34:47;94819.06;;;18.86;61.16
49915;BME280;35806;47.958;13.158;2023-08-17T02:37:14;94817.06;;;19.05;60.53
49915;BME280;35806;47.958;13.158;2023-08-17T02:39:41;94814.13;;;18.80;61.99
49915;BME280;35806;47.958;13.158;2023-08-17T02:42:08;94813.91;;;18.71;62.26
49915;BME280;35806;47.958;13.158;2023-08-17T02:44:36;94812.97;;;18.99;60.91
49915;BME280;35806;47.958;13.158;2023-08-17T02:47:03;94812.14;;;19.06;61.06
49915;BME280;35806;47.958;13.158;2023-08-17T02:49:30;94813.54;;;18.84;60.56
49915;BME280;35806;47.958;13.158;2023-08-17T02:51:57;94810.95;;;19.10;59.55
49915;BME280;35806;47.958;13.158;2023-08-17T02:54:25;94812.64;;;19.15;61.04
49915;BME280;35806;47.958;13.158;2023-08-17T02:56:52;94814.82;;;19.23;60.94
49915;BME280;35806;47.958;13.158;2023-08-17T02:59:19;94815.29;;;18.61;60.48
49915;BME280;35806;47.958;13.158;2023-08-17T03:01:46;94818.79;;;18.58;60.34
49915;BME280;35806;47.958;13.158;2023-08-17T03:04:14;94818.18;;;18.79;60.90
49915;BME280;35806;47.958;13.158;2023-08-17T03:06:41;94818.82;;;18.84;62.24
49915;BME280;35806;47.958;13.158;2023-08-17T03:09:08;94820.01;;;18.86;62.96
49915;BME280;35806;47.958;13.158;2023-08-17T03:11:35;94819.41;;;19.01;62.21
49915;BME280;35806;47.958;13.158;2023-08-17T03:14:02;94819.84;;;18.89;62.53
49915;BME280;35806;47.958;13.158;2023-08-17T03:16:29;94821.93;;;18.89;61.87
49915;BME280;35806;47.958;13.158;2023-08-17T03:18:57;94821.96;;;18.72;62.01
49915;BME280;35806;47.958;13.158;2023-08-17T03:21:24;94818.11;;;18.91;59.42
49915;BME280;35806;47.958;13.158;2023-08-17T03:23:52;94816.75;;;18.78;59.05
49915;BME280;35806;47.958;13.158;2023-08-17T03:26:19;94813.29;;;18.53;60.41
49915;BME280;35806;47.958;13.158;2023-08-17T03:28:46;94812.44;;;18.28;61.84
49915;BME280;35806;47.958;13.158;2023-08-17T03:31:14;94812.69;;;19.09;61.62
49915;BME280;35806;47.958;13.158;2023-08-17T03:33:41;94808.26;;;18.79;61.56
49915;BME280;35806;47.958;13.158;2023-08-17T03:36:08;94805.38;;;18.95;61.43
49915;BME280;35806;47.958;13.158;2023-08-17T03:38:35;94804.88;;;18.79;60.82
49915;BME280;35806;47.958;13.158;2023-08-17T03:41:03;94802.99;;;18.59;62.17
49915;BME280;35806;47.958;13.158;2023-08-17T03:43:30;94800.27;;;18.68;62.35
49915;BME280;35806;47.958;13.158;2023-08-17T03:45:57;94798.87;;;18.58;62.21
49915;BME280;35806;47.958;13.158;2023-08-17T03:48:24;94800.30;;;18.53;61.71
49915;BME280;35806;47.958;13.158;2023-08-17T03:50:52;94803.66;;;18.67;61.36
49915;BME280;35806;47.958;13.158;2023-08-17T03:53:19;94806.52;;;19.02;60.53
49915;BME280;35806;47.958;13.158;2023-08-17T03:55:46;94809.43;;;18.79;60.57
49915;BME280;35806;47.958;13.158;2023-08-17T03:58:14;94811.24;;;18.77;61.59
49915;BME280;35806;47.958;13.158;2023-08-17T04:00:41;94810.64;;;18.63;59.65
49915;BME280;35806;47.958;13.158;2023-08-17T04:03:08;94805.99;;;18.83;59.40
49915;BME280;35806;47.958;13.158;2023-08-17T04:05:36;94804.95;;;18.68;60.39
49915;BME280;35806;47.958;13.158;2023-08-17T04:08:03;94806.99;;;19.00;59.81
49915;BME280;35806;47.958;13.158;2023-08-17T04:10:30;94811.02;;;18.36;61.49
49915;BME280;35806;47.958;13.158;2023-08-17T04:12:57;94817.51;;;18.27;61.75
49915;BME280;35806;47.958;13.158;2023-08-17T04:15:25;94821.83;;;18.59;61.79
49915;BME280;35806;47.958;13.158;2023-08-17T04:17:52;94824.98;;;18.25;61.75
49915;BME280;35806;47.958;13.158;2023-08-17T04:20:19;94824.81;;;18.51;61.17
49915;BME280;35806;47.958;13.158;2023-08-17T04:22:47;94827.21;;;18.50;60.61
49915;BME280;35806;47.958;13.158;2023-08-17T04:25:14;94833.79;;;18.21;59.29
49915;BME280;35806;47.958;13.158;2023-08-17T04:27:42;94831.74;;;18.39;58.90
49915;BME280;35806;47.958;13.158;2023-08-17T04:30:11;94836.67;;;18.44;61.12
49915;BME280;35806;47.958;13.158;2023-08-17T04:32:38;94834.26;;;18.54;62.07
49915;BME280;35806;47.958;13.158;2023-08-17T04:35:05;94832.89;;;18.53;61.55
49915;BME280;35806;47.958;13.158;2023-08-17T04:37:32;94837.60;;;18.33;59.86
49915;BME280;35806;47.958;13.158;2023-08-17T04:40:00;94839.89;;;17.99;60.49
49915;BME280;35806;47.958;13.158;2023-08-17T04:42:27;94845.65;;;18.62;59.52
49915;BME280;35806;47.958;13.158;2023-08-17T04:44:55;94845.66;;;18.30;61.93
49915;BME280;35806;47.958;13.158;2023-08-17T04:47:22;94843.30;;;18.99;62.15
49915;BME280;35806;47.958;13.158;2023-08-17T04:49:50;94844.91;;;18.59;61.57
49915;BME280;35806;47.958;13.158;2023-08-17T04:52:17;94842.97;;;18.74;62.23
49915;BME280;35806;47.958;13.158;2023-08-17T04:54:44;94842.15;;;18.51;62.07
49915;BME280;35806;47.958;13.158;2023-08-17T04:57:12;94843.08;;;18.87;61.11
49915;BME280;35806;47.958;13.158;2023-08-17T04:59:40;94843.90;;;19.12;59.75
49915;BME280;35806;47.958;13.158;2023-08-17T05:02:08;94849.79;;;19.39;60.05
49915;BME280;35806;47.958;13.158;2023-08-17T05:04:50;94856.50;;;19.47;60.97
49915;BME280;35806;47.958;13.158;2023-08-17T05:07:18;94857.58;;;19.40;61.09
49915;BME280;35806;47.958;13.158;2023-08-17T05:09:45;94863.64;;;19.07;61.29
49915;BME280;35806;47.958;13.158;2023-08-17T05:12:12;94866.14;;;19.53;61.05
49915;BME280;35806;47.958;13.158;2023-08-17T05:14:40;94868.86;;;20.05;60.49
49915;BME280;35806;47.958;13.158;2023-08-17T05:17:07;94870.51;;;19.96;60.93
49915;BME280;35806;47.958;13.158;2023-08-17T05:19:34;94866.67;;;19.88;60.75
49915;BME280;35806;47.958;13.158;2023-08-17T05:22:01;94865.98;;;20.07;60.87
49915;BME280;35806;47.958;13.158;2023-08-17T05:24:29;94865.35;;;20.02;59.96
49915;BME280;35806;47.958;13.158;2023-08-17T05:26:56;94865.57;;;19.19;60.94
49915;BME280;35806;47.958;13.158;2023-08-17T05:29:44;94868.10;;;19.18;61.56
49915;BME280;35806;47.958;13.158;2023-08-17T05:32:11;94869.49;;;19.36;61.61
49915;BME280;35806;47.958;13.158;2023-08-17T05:34:44;94870.18;;;19.64;60.87
49915;BME280;35806;47.958;13.158;2023-08-17T05:37:11;94870.94;;;19.89;60.76
49915;BME280;35806;47.958;13.158;2023-08-17T05:39:39;94867.87;;;19.52;60.84
49915;BME280;35806;47.958;13.158;2023-08-17T05:42:07;94870.15;;;19.73;60.69
49915;BME280;35806;47.958;13.158;2023-08-17T05:44:34;94872.65;;;20.07;60.03
49915;BME280;35806;47.958;13.158;2023-08-17T05:47:01;94875.84;;;20.73;59.58
49915;BME280;35806;47.958;13.158;2023-08-17T05:49:28;94875.16;;;20.77;59.86
49915;BME280;35806;47.958;13.158;2023-08-17T05:51:55;94879.38;;;21.01;59.91
49915;BME280;35806;47.958;13.158;2023-08-17T05:54:21;94877.70;;;21.60;59.05
49915;BME280;35806;47.958;13.158;2023-08-17T05:56:49;94878.70;;;21.34;58.23
49915;BME280;35806;47.958;13.158;2023-08-17T05:59:16;94879.82;;;21.56;58.20
49915;BME280;35806;47.958;13.158;2023-08-17T06:01:44;94877.92;;;21.70;57.88
49915;BME280;35806;47.958;13.158;2023-08-17T06:04:11;94879.85;;;22.06;57.65
49915;BME280;35806;47.958;13.158;2023-08-17T06:06:39;94881.49;;;22.39;56.55
49915;BME280;35806;47.958;13.158;2023-08-17T06:09:11;94882.28;;;21.87;56.95
49915;BME280;35806;47.958;13.158;2023-08-17T06:11:38;94879.91;;;21.98;57.33
49915;BME280;35806;47.958;13.158;2023-08-17T06:14:06;94881.23;;;22.06;56.93
49915;BME280;35806;47.958;13.158;2023-08-17T06:16:33;94881.16;;;22.39;56.61
49915;BME280;35806;47.958;13.158;2023-08-17T06:19:00;94880.15;;;22.26;56.66
49915;BME280;35806;47.958;13.158;2023-08-17T06:21:28;94876.86;;;22.44;56.15
49915;BME280;35806;47.958;13.158;2023-08-17T06:23:55;94878.55;;;22.13;54.92
49915;BME280;35806;47.958;13.158;2023-08-17T06:26:22;94879.94;;;22.24;55.23
49915;BME280;35806;47.958;13.158;2023-08-17T06:28:49;94880.46;;;22.09;55.57
49915;BME280;35806;47.958;13.158;2023-08-17T06:31:16;94880.72;;;21.75;56.33
49915;BME280;35806;47.958;13.158;2023-08-17T06:33:44;94876.34;;;21.43;57.03
49915;BME280;35806;47.958;13.158;2023-08-17T06:36:11;94872.19;;;21.63;56.86
49915;BME280;35806;47.958;13.158;2023-08-17T06:38:39;94871.72;;;21.80;56.81
49915;BME280;35806;47.958;13.158;2023-08-17T06:41:06;94870.53;;;21.90;56.39
49915;BME280;35806;47.958;13.158;2023-08-17T06:43:33;94873.25;;;22.34;56.38
49915;BME280;35806;47.958;13.158;2023-08-17T06:46:01;94874.71;;;22.51;56.37
49915;BME280;35806;47.958;13.158;2023-08-17T06:48:28;94874.93;;;22.22;55.95
49915;BME280;35806;47.958;13.158;2023-08-17T06:50:55;94877.03;;;22.22;55.27
49915;BME280;35806;47.958;13.158;2023-08-17T06:53:22;94877.53;;;22.55;55.27
49915;BME280;35806;47.958;13.158;2023-08-17T06:55:49;94881.70;;;21.87;55.76
49915;BME280;35806;47.958;13.158;2023-08-17T06:58:16;94882.44;;;22.23;55.99
49915;BME280;35806;47.958;13.158;2023-08-17T07:00:43;94878.86;;;22.23;55.46
49915;BME280;35806;47.958;13.158;2023-08-17T07:03:11;94878.05;;;22.73;55.11
49915;BME280;35806;47.958;13.158;2023-08-17T07:05:38;94880.23;;;22.68;55.74
49915;BME280;35806;47.958;13.158;2023-08-17T07:08:06;94882.25;;;22.90;55.43
49915;BME280;35806;47.958;13.158;2023-08-17T07:10:33;94883.37;;;23.45;54.74
49915;BME280;35806;47.958;13.158;2023-08-17T07:13:01;94886.25;;;23.16;53.91
49915;BME280;35806;47.958;13.158;2023-08-17T07:15:28;94887.33;;;23.35;53.21
49915;BME280;35806;47.958;13.158;2023-08-17T07:17:56;94891.83;;;23.59;52.98
49915;BME280;35806;47.958;13.158;2023-08-17T07:20:23;94894.21;;;23.84;52.36
49915;BME280;35806;47.958;13.158;2023-08-17T07:22:50;94900.82;;;24.09;52.11
49915;BME280;35806;47.958;13.158;2023-08-17T07:25:17;94898.02;;;24.43;52.33
49915;BME280;35806;47.958;13.158;2023-08-17T07:27:44;94900.06;;;24.38;52.18
49915;BME280;35806;47.958;13.158;2023-08-17T07:30:12;94896.96;;;24.68;50.66
49915;BME280;35806;47.958;13.158;2023-08-17T07:32:40;94896.61;;;25.33;50.43
49915;BME280;35806;47.958;13.158;2023-08-17T07:35:08;94897.76;;;25.37;50.52
49915;BME280;35806;47.958;13.158;2023-08-17T07:37:36;94896.16;;;25.81;50.24
49915;BME280;35806;47.958;13.158;2023-08-17T07:40:04;94893.72;;;25.83;48.29
49915;BME280;35806;47.958;13.158;2023-08-17T07:42:31;94896.53;;;26.06;48.13
49915;BME280;35806;47.958;13.158;2023-08-17T07:44:58;94895.74;;;25.83;48.52
49915;BME280;35806;47.958;13.158;2023-08-17T07:47:25;94895.39;;;25.98;47.46
49915;BME280;35806;47.958;13.158;2023-08-17T07:49:53;94895.43;;;25.68;47.18
49915;BME280;35806;47.958;13.158;2023-08-17T07:52:20;94896.19;;;25.56;48.87
49915;BME280;35806;47.958;13.158;2023-08-17T07:54:47;94892.99;;;25.90;47.73
49915;BME280;35806;47.958;13.158;2023-08-17T07:57:15;94894.05;;;26.13;46.87
49915;BME280;35806;47.958;13.158;2023-08-17T07:59:42;94891.92;;;26.30;46.93
49915;BME280;35806;47.958;13.158;2023-08-17T08:02:09;94894.44;;;26.48;46.87
49915;BME280;35806;47.958;13.158;2023-08-17T08:04:36;94891.28;;;26.38;45.87
49915;BME280;35806;47.958;13.158;2023-08-17T08:07:05;94887.34;;;26.88;46.38
49915;BME280;35806;47.958;13.158;2023-08-17T08:09:33;94890.56;;;27.18;45.22
49915;BME280;35806;47.958;13.158;2023-08-17T08:12:00;94889.90;;;26.54;45.68
49915;BME280;35806;47.958;13.158;2023-08-17T08:14:28;94889.18;;;26.23;46.03
49915;BME280;35806;47.958;13.158;2023-08-17T08:16:55;94892.50;;;26.56;46.71
49915;BME280;35806;47.958;13.158;2023-08-17T08:19:22;94892.44;;;26.90;45.59
49915;BME280;35806;47.958;13.158;2023-08-17T08:21:51;94891.70;;;25.98;48.06
49915;BME280;35806;47.958;13.158;2023-08-17T08:24:18;94888.44;;;26.56;46.54
49915;BME280;35806;47.958;13.158;2023-08-17T08:26:45;94891.15;;;24.71;47.60
49915;BME280;35806;47.958;13.158;2023-08-17T08:29:12;94887.91;;;25.51;46.59
49915;BME280;35806;47.958;13.158;2023-08-17T08:31:40;94888.64;;;26.27;47.07
49915;BME280;35806;47.958;13.158;2023-08-17T08:34:07;94887.53;;;26.10;47.78
49915;BME280;35806;47.958;13.158;2023-08-17T08:36:35;94887.77;;;26.74;45.58
49915;BME280;35806;47.958;13.158;2023-08-17T08:39:02;94886.88;;;26.93;43.48
49915;BME280;35806;47.958;13.158;2023-08-17T08:41:29;94888.52;;;27.25;44.84
49915;BME280;35806;47.958;13.158;2023-08-17T08:43:57;94889.10;;;27.25;44.33
49915;BME280;35806;47.958;13.158;2023-08-17T08:46:27;94890.42;;;27.92;43.72
49915;BME280;35806;47.958;13.158;2023-08-17T08:48:56;94891.54;;;27.86;44.31
49915;BME280;35806;47.958;13.158;2023-08-17T08:51:27;94889.66;;;28.16;44.57
49915;BME280;35806;47.958;13.158;2023-08-17T08:54:02;94888.96;;;27.90;42.84
49915;BME280;35806;47.958;13.158;2023-08-17T08:56:32;94889.15;;;28.33;41.82
49915;BME280;35806;47.958;13.158;2023-08-17T08:59:01;94894.83;;;28.57;40.91
49915;BME280;35806;47.958;13.158;2023-08-17T09:01:30;94892.89;;;28.58;41.46
49915;BME280;35806;47.958;13.158;2023-08-17T09:03:59;94895.71;;;27.29;39.95
49915;BME280;35806;47.958;13.158;2023-08-17T09:06:27;94896.25;;;28.15;41.05
49915;BME280;35806;47.958;13.158;2023-08-17T09:08:57;94898.19;;;28.46;42.29
49915;BME280;35806;47.958;13.158;2023-08-17T09:11:24;94895.51;;;28.10;42.27
49915;BME280;35806;47.958;13.158;2023-08-17T09:13:53;94897.16;;;28.23;42.63
49915;BME280;35806;47.958;13.158;2023-08-17T09:16:20;94898.74;;;28.63;41.94
49915;BME280;35806;47.958;13.158;2023-08-17T09:18:47;94896.67;;;29.28;40.70
49915;BME280;35806;47.958;13.158;2023-08-17T09:21:20;94893.71;;;29.14;42.11
49915;BME280;35806;47.958;13.158;2023-08-17T09:23:51;94893.16;;;28.45;42.15
49915;BME280;35806;47.958;13.158;2023-08-17T09:26:19;94892.88;;;28.56;44.26
49915;BME280;35806;47.958;13.158;2023-08-17T09:28:47;94893.39;;;28.45;44.65
49915;BME280;35806;47.958;13.158;2023-08-17T09:31:14;94894.60;;;28.99;43.29
49915;BME280;35806;47.958;13.158;2023-08-17T09:33:42;94888.93;;;28.39;43.38
49915;BME280;35806;47.958;13.158;2023-08-17T09:36:11;94889.03;;;28.75;43.14
49915;BME280;35806;47.958;13.158;2023-08-17T09:38:40;94889.73;;;28.68;42.96
49915;BME280;35806;47.958;13.158;2023-08-17T09:41:08;94891.54;;;28.73;42.28
49915;BME280;35806;47.958;13.158;2023-08-17T09:43:35;94891.93;;;29.11;42.19
49915;BME280;35806;47.958;13.158;2023-08-17T09:46:03;94889.83;;;28.94;41.83
49915;BME280;35806;47.958;13.158;2023-08-17T09:48:31;94888.31;;;29.44;41.31
49915;BME280;35806;47.958;13.158;2023-08-17T09:50:58;94888.52;;;29.15;42.07
49915;BME280;35806;47.958;13.158;2023-08-17T09:53:25;94888.89;;;28.99;40.77
49915;BME280;35806;47.958;13.158;2023-08-17T09:55:53;94886.44;;;28.89;40.04
49915;BME280;35806;47.958;13.158;2023-08-17T09:58:21;94888.74;;;29.26;39.41
49915;BME280;35806;47.958;13.158;2023-08-17T10:00:49;94885.78;;;28.47;40.69
49915;BME280;35806;47.958;13.158;2023-08-17T10:03:18;94883.63;;;29.38;39.82
49915;BME280;35806;47.958;13.158;2023-08-17T10:05:53;94882.60;;;29.03;38.69
49915;BME280;35806;47.958;13.158;2023-08-17T10:08:23;94877.76;;;29.70;39.29
49915;BME280;35806;47.958;13.158;2023-08-17T10:10:51;94875.07;;;29.28;36.26
49915;BME280;35806;47.958;13.158;2023-08-17T10:13:26;94878.16;;;29.09;36.46
49915;BME280;35806;47.958;13.158;2023-08-17T10:16:02;94876.43;;;29.13;36.45
49915;BME280;35806;47.958;13.158;2023-08-17T10:18:39;94872.51;;;29.43;36.42
49915;BME280;35806;47.958;13.158;2023-08-17T10:21:15;94872.25;;;29.68;36.94
49915;BME280;35806;47.958;13.158;2023-08-17T10:23:45;94870.16;;;29.81;36.56
49915;BME280;35806;47.958;13.158;2023-08-17T10:26:12;94869.63;;;29.65;36.04
49915;BME280;35806;47.958;13.158;2023-08-17T10:28:41;94869.96;;;29.96;36.59
49915;BME280;35806;47.958;13.158;2023-08-17T10:31:09;94870.09;;;29.92;35.20
49915;BME280;35806;47.958;13.158;2023-08-17T10:33:37;94869.82;;;29.81;35.07
49915;BME280;35806;47.958;13.158;2023-08-17T10:36:05;94866.69;;;30.21;35.50
49915;BME280;35806;47.958;13.158;2023-08-17T10:38:33;94866.62;;;29.75;34.70
49915;BME280;35806;47.958;13.158;2023-08-17T10:41:09;94862.37;;;30.03;34.09
49915;BME280;35806;47.958;13.158;2023-08-17T10:43:54;94863.24;;;30.07;34.05
49915;BME280;35806;47.958;13.158;2023-08-17T10:46:22;94863.21;;;30.19;34.35
49915;BME280;35806;47.958;13.158;2023-08-17T10:49:03;94863.98;;;29.85;34.00
49915;BME280;35806;47.958;13.158;2023-08-17T10:51:30;94863.77;;;30.16;32.77
49915;BME280;35806;47.958;13.158;2023-08-17T10:54:01;94864.92;;;30.76;31.29
49915;BME280;35806;47.958;13.158;2023-08-17T10:56:28;94861.21;;;30.30;32.42
49915;BME280;35806;47.958;13.158;2023-08-17T10:58:59;94864.08;;;30.00;31.54
49915;BME280;35806;47.958;13.158;2023-08-17T11:01:35;94862.84;;;29.87;30.77
49915;BME280;35806;47.958;13.158;2023-08-17T11:04:11;94863.19;;;29.97;31.55
49915;BME280;35806;47.958;13.158;2023-08-17T11:06:45;94866.15;;;30.87;32.15
49915;BME280;35806;47.958;13.158;2023-08-17T11:09:12;94865.63;;;30.65;32.00
49915;BME280;35806;47.958;13.158;2023-08-17T11:11:52;94860.50;;;31.53;31.23
49915;BME280;35806;47.958;13.158;2023-08-17T11:14:19;94859.36;;;31.85;30.33
49915;BME280;35806;47.958;13.158;2023-08-17T11:16:47;94858.68;;;30.98;32.11
49915;BME280;35806;47.958;13.158;2023-08-17T11:19:17;94856.88;;;31.42;31.93
49915;BME280;35806;47.958;13.158;2023-08-17T11:21:45;94856.18;;;30.37;30.74
49915;BME280;35806;47.958;13.158;2023-08-17T11:24:13;94855.44;;;30.26;29.97
49915;BME280;35806;47.958;13.158;2023-08-17T11:26:41;94855.27;;;30.49;28.33
49915;BME280;35806;47.958;13.158;2023-08-17T11:29:09;94851.50;;;31.04;29.24
49915;BME280;35806;47.958;13.158;2023-08-17T11:31:39;94851.00;;;31.22;28.59
49915;BME280;35806;47.958;13.158;2023-08-17T11:34:06;94850.06;;;31.27;30.01
49915;BME280;35806;47.958;13.158;2023-08-17T11:36:33;94849.74;;;31.07;29.42
49915;BME280;35806;47.958;13.158;2023-08-17T11:39:01;94848.19;;;30.92;30.44
49915;BME280;35806;47.958;13.158;2023-08-17T11:41:29;94847.95;;;31.49;30.68
49915;BME280;35806;47.958;13.158;2023-08-17T11:43:56;94845.00;;;30.95;31.19
49915;BME280;35806;47.958;13.158;2023-08-17T11:46:24;94838.44;;;31.56;30.19
49915;BME280;35806;47.958;13.158;2023-08-17T11:48:51;94841.42;;;31.38;31.04
49915;BME280;35806;47.958;13.158;2023-08-17T11:51:27;94846.73;;;30.86;29.37
49915;BME280;35806;47.958;13.158;2023-08-17T11:53:54;94845.56;;;31.11;28.04
49915;BME280;35806;47.958;13.158;2023-08-17T11:56:25;94843.14;;;30.95;28.28
49915;BME280;35806;47.958;13.158;2023-08-17T11:58:53;94844.21;;;30.52;27.02
49915;BME280;35806;47.958;13.158;2023-08-17T12:01:20;94844.62;;;30.74;28.34
49915;BME280;35806;47.958;13.158;2023-08-17T12:03:48;94842.65;;;31.45;27.22
49915;BME280;35806;47.958;13.158;2023-08-17T12:06:16;94839.37;;;31.89;27.50
49915;BME280;35806;47.958;13.158;2023-08-17T12:08:44;94840.50;;;31.31;27.44
49915;BME280;35806;47.958;13.158;2023-08-17T12:11:11;94839.48;;;31.57;27.45
49915;BME280;35806;47.958;13.158;2023-08-17T12:13:39;94840.08;;;31.91;28.13
49915;BME280;35806;47.958;13.158;2023-08-17T12:16:06;94836.20;;;31.74;28.71
49915;BME280;35806;47.958;13.158;2023-08-17T12:18:44;94834.69;;;31.82;28.70
49915;BME280;35806;47.958;13.158;2023-08-17T12:21:11;94829.30;;;31.45;26.05
49915;BME280;35806;47.958;13.158;2023-08-17T12:23:39;94827.59;;;31.91;27.37
49915;BME280;35806;47.958;13.158;2023-08-17T12:26:07;94816.73;;;32.43;29.43
49915;BME280;35806;47.958;13.158;2023-08-17T12:28:34;94814.60;;;32.15;29.68
49915;BME280;35806;47.958;13.158;2023-08-17T12:31:02;94810.58;;;31.66;30.20
49915;BME280;35806;47.958;13.158;2023-08-17T12:33:30;94811.37;;;30.98;30.96
49915;BME280;35806;47.958;13.158;2023-08-17T12:35:57;94809.60;;;31.04;31.03
49915;BME280;35806;47.958;13.158;2023-08-17T12:38:25;94807.10;;;30.70;30.90
49915;BME280;35806;47.958;13.158;2023-08-17T12:40:52;94801.01;;;30.84;32.22
49915;BME280;35806;47.958;13.158;2023-08-17T12:43:20;94791.00;;;31.01;31.42
49915;BME280;35806;47.958;13.158;2023-08-17T12:45:47;94795.53;;;30.56;32.82
49915;BME280;35806;47.958;13.158;2023-08-17T12:48:14;94791.69;;;30.84;31.86
49915;BME280;35806;47.958;13.158;2023-08-17T12:50:42;94791.21;;;31.38;31.93
49915;BME280;35806;47.958;13.158;2023-08-17T12:53:10;94791.12;;;30.62;31.92
49915;BME280;35806;47.958;13.158;2023-08-17T12:55:38;94787.84;;;31.46;31.44
49915;BME280;35806;47.958;13.158;2023-08-17T12:58:08;94790.21;;;30.49;32.60
49915;BME280;35806;47.958;13.158;2023-08-17T13:00:35;94790.31;;;31.07;31.91
49915;BME280;35806;47.958;13.158;2023-08-17T13:03:03;94788.74;;;30.80;32.80
49915;BME280;35806;47.958;13.158;2023-08-17T13:05:31;94788.70;;;30.80;33.70
49915;BME280;35806;47.958;13.158;2023-08-17T13:07:59;94786.85;;;30.98;33.39
49915;BME280;35806;47.958;13.158;2023-08-17T13:10:26;94783.29;;;31.28;32.42